Time;durP1;ratioP1;P1;durP2;ratioP2;P2;SDS_P1;SDS_P2;PMS_P1;PMS_P2;Temp;Humidity;BMP_temperature;BMP_pressure;BME280_temperature;BME280_humidity;BME280_pressure;Samples;Min_cycle;Max_cycle;Signal;HPM_P1;HPM_P2
2023/10/21 00:00:29;;;;;;;1.20;0.70;;;11.60;99.90;;;;;;5014428;28;20104;-66
2023/10/21 00:02:55;;;;;;;0.50;0.50;;;11.50;99.90;;;;;;4992275;28;20049;-66
2023/10/21 00:05:21;;;;;;;1.50;0.82;;;11.40;99.90;;;;;;4997668;28;20112;-66
2023/10/21 00:07:47;;;;;;;2.10;0.60;;;11.40;99.90;;;;;;5015306;28;20106;-66
2023/10/21 00:10:12;;;;;;;1.42;0.52;;;11.40;99.90;;;;;;5014305;28;20444;-66
2023/10/21 00:12:38;;;;;;;1.05;0.30;;;11.30;99.90;;;;;;5011152;28;20041;-65
2023/10/21 00:15:06;;;;;;;1.38;0.90;;;11.20;99.90;;;;;;5005102;28;20149;-66
2023/10/21 00:17:33;;;;;;;0.85;0.52;;;11.30;99.90;;;;;;4999750;28;20091;-66
2023/10/21 00:19:59;;;;;;;8.55;0.80;;;11.20;99.90;;;;;;4997172;28;20092;-66
2023/10/21 00:22:26;;;;;;;0.70;0.40;;;11.20;99.90;;;;;;5011337;28;20542;-65
2023/10/21 00:24:52;;;;;;;1.40;0.47;;;11.20;99.90;;;;;;5017330;28;20069;-66
2023/10/21 00:27:17;;;;;;;3.90;0.52;;;11.20;99.90;;;;;;4997805;28;20574;-66
2023/10/21 00:29:43;;;;;;;1.02;0.60;;;11.10;99.90;;;;;;5019281;28;20045;-66
2023/10/21 00:32:09;;;;;;;4.97;0.50;;;11.10;99.90;;;;;;5010133;28;20057;-66
2023/10/21 00:34:38;;;;;;;0.90;0.40;;;11.00;99.90;;;;;;5017188;28;20065;-66
2023/10/21 00:37:08;;;;;;;1.33;0.68;;;11.00;99.90;;;;;;5016998;28;20046;-66
2023/10/21 00:39:34;;;;;;;0.80;0.50;;;11.00;99.90;;;;;;4981107;28;20048;-67
2023/10/21 00:42:09;;;;;;;0.68;0.52;;;11.00;99.90;;;;;;5009328;28;20044;-65
2023/10/21 00:44:35;;;;;;;1.23;0.73;;;11.00;99.90;;;;;;5017944;28;20113;-66
2023/10/21 00:47:01;;;;;;;0.77;0.32;;;11.10;99.90;;;;;;5014646;28;20117;-66
2023/10/21 00:49:30;;;;;;;1.63;0.70;;;11.00;99.90;;;;;;5009966;28;20067;-65
2023/10/21 00:51:57;;;;;;;1.05;0.60;;;11.00;99.90;;;;;;5013904;28;20040;-66
2023/10/21 00:54:25;;;;;;;3.15;0.77;;;10.90;99.90;;;;;;4999220;28;20048;-66
2023/10/21 00:56:51;;;;;;;0.77;0.60;;;10.90;99.90;;;;;;5001356;28;20108;-66
2023/10/21 00:59:18;;;;;;;0.93;0.50;;;10.90;99.90;;;;;;5017073;28;20343;-66
2023/10/21 01:01:45;;;;;;;1.77;0.68;;;10.90;99.90;;;;;;5010549;28;20042;-66
2023/10/21 01:04:13;;;;;;;4.95;0.98;;;10.90;99.90;;;;;;4985133;28;20089;-66
2023/10/21 01:06:39;;;;;;;2.15;1.02;;;10.80;99.90;;;;;;4995595;28;20048;-66
2023/10/21 01:09:04;;;;;;;8.45;1.23;;;10.90;99.90;;;;;;4981388;28;20045;-66
2023/10/21 01:11:30;;;;;;;3.47;1.23;;;10.90;99.90;;;;;;5010769;28;20536;-66
2023/10/21 01:13:56;;;;;;;1.88;1.02;;;10.80;99.90;;;;;;5015334;28;20549;-66
2023/10/21 01:16:22;;;;;;;1.80;1.05;;;10.80;99.90;;;;;;5000989;28;20038;-66
2023/10/21 01:18:48;;;;;;;1.65;1.00;;;10.70;99.90;;;;;;5012650;28;20041;-66
2023/10/21 01:21:14;;;;;;;2.05;1.10;;;10.70;99.90;;;;;;4997032;28;20053;-66
2023/10/21 01:23:40;;;;;;;1.65;1.13;;;10.60;99.90;;;;;;4998285;28;20042;-67
2023/10/21 01:26:07;;;;;;;1.67;1.00;;;10.60;99.90;;;;;;5002527;28;20123;-66
2023/10/21 01:28:33;;;;;;;4.15;1.13;;;10.60;99.90;;;;;;5014142;28;20547;-66
2023/10/21 01:31:00;;;;;;;2.95;1.40;;;10.60;99.90;;;;;;5015398;28;20038;-66
2023/10/21 01:33:26;;;;;;;4.07;1.50;;;10.50;99.90;;;;;;5010256;28;20056;-66
2023/10/21 01:35:51;;;;;;;1.45;0.93;;;10.50;99.90;;;;;;4992794;28;20046;-65
2023/10/21 01:38:20;;;;;;;2.22;1.13;;;10.50;99.90;;;;;;5001747;28;20037;-66
2023/10/21 01:40:47;;;;;;;1.55;1.30;;;10.50;99.90;;;;;;4999496;28;20211;-66
2023/10/21 01:43:13;;;;;;;4.05;1.65;;;10.40;99.90;;;;;;5013720;28;20100;-66
2023/10/21 01:45:39;;;;;;;1.08;0.73;;;10.50;99.90;;;;;;5011382;28;20747;-65
2023/10/21 01:48:05;;;;;;;4.78;1.55;;;10.40;99.90;;;;;;5012834;28;20370;-65
2023/10/21 01:50:31;;;;;;;1.85;1.13;;;10.50;99.90;;;;;;5013956;28;20072;-66
2023/10/21 01:52:58;;;;;;;1.90;1.23;;;10.50;99.90;;;;;;5014769;28;21004;-66
2023/10/21 01:55:24;;;;;;;1.67;1.30;;;10.40;99.90;;;;;;5014101;28;20041;-66
2023/10/21 01:57:51;;;;;;;3.92;2.03;;;10.40;99.90;;;;;;5010402;28;20038;-65
2023/10/21 02:00:20;;;;;;;4.40;1.55;;;10.40;99.90;;;;;;5015554;28;20365;-65
2023/10/21 02:02:54;;;;;;;2.03;1.63;;;10.40;99.90;;;;;;5017607;28;20064;-65
2023/10/21 02:05:20;;;;;;;1.97;1.27;;;10.40;99.90;;;;;;5014414;28;20413;-65
2023/10/21 02:07:47;;;;;;;4.30;1.80;;;10.40;99.90;;;;;;5019928;28;20045;-65
2023/10/21 02:10:13;;;;;;;2.42;1.63;;;10.40;99.90;;;;;;5021095;28;20501;-66
2023/10/21 02:12:39;;;;;;;3.10;1.10;;;10.40;99.90;;;;;;5015525;28;20049;-65
2023/10/21 02:15:11;;;;;;;2.08;1.20;;;10.40;99.90;;;;;;5012877;28;20041;-66
2023/10/21 02:17:39;;;;;;;3.67;1.30;;;10.40;99.90;;;;;;4984516;28;20034;-65
2023/10/21 02:20:05;;;;;;;10.15;1.70;;;10.30;99.90;;;;;;4995112;28;20490;-66
2023/10/21 02:22:31;;;;;;;1.85;1.25;;;10.40;99.90;;;;;;4991532;28;20054;-66
2023/10/21 02:24:58;;;;;;;3.08;1.45;;;10.40;99.90;;;;;;5013282;28;20044;-66
2023/10/21 02:27:23;;;;;;;3.38;1.27;;;10.30;99.90;;;;;;5001336;28;20050;-65
2023/10/21 02:29:50;;;;;;;2.05;0.95;;;10.30;99.90;;;;;;5019828;28;20334;-65
2023/10/21 02:32:16;;;;;;;2.17;1.48;;;10.30;99.90;;;;;;5016617;28;20444;-66
2023/10/21 02:34:41;;;;;;;3.40;1.45;;;10.30;99.90;;;;;;5014745;28;20401;-65
2023/10/21 02:37:08;;;;;;;5.55;0.93;;;10.40;99.90;;;;;;5012278;28;20034;-66
2023/10/21 02:39:34;;;;;;;1.52;1.02;;;10.40;99.90;;;;;;5000857;28;20049;-66
2023/10/21 02:41:59;;;;;;;2.33;1.40;;;10.40;99.90;;;;;;5005366;28;20047;-65
2023/10/21 02:44:25;;;;;;;1.85;1.30;;;10.40;99.90;;;;;;5011856;28;20087;-65
2023/10/21 02:46:51;;;;;;;1.85;1.00;;;10.40;99.90;;;;;;5012549;28;20042;-66
2023/10/21 02:49:16;;;;;;;1.55;1.05;;;10.40;99.90;;;;;;5001883;28;20080;-65
2023/10/21 02:51:42;;;;;;;2.40;1.20;;;10.40;99.90;;;;;;5021773;28;20390;-65
2023/10/21 02:54:08;;;;;;;1.92;0.98;;;10.40;99.90;;;;;;5006066;28;20052;-65
2023/10/21 02:56:34;;;;;;;1.85;1.15;;;10.40;99.90;;;;;;5016747;28;20049;-66
2023/10/21 02:59:00;;;;;;;2.33;0.98;;;10.40;99.90;;;;;;5021441;28;20046;-66
2023/10/21 03:01:26;;;;;;;3.63;1.60;;;10.30;99.90;;;;;;5022249;28;20088;-66
2023/10/21 03:03:52;;;;;;;2.30;1.52;;;10.30;99.90;;;;;;5014663;28;20485;-65
2023/10/21 03:06:21;;;;;;;3.13;1.55;;;10.40;99.90;;;;;;4989415;28;20038;-65
2023/10/21 03:08:47;;;;;;;2.28;1.63;;;10.40;99.90;;;;;;5019943;28;20056;-66
2023/10/21 03:11:14;;;;;;;4.78;1.65;;;10.40;99.90;;;;;;4999541;28;20077;-65
2023/10/21 03:13:40;;;;;;;1.30;0.90;;;10.40;99.90;;;;;;4999230;28;20477;-65
2023/10/21 03:16:06;;;;;;;4.28;0.90;;;10.40;99.90;;;;;;5019643;28;20073;-65
2023/10/21 03:18:32;;;;;;;1.42;0.75;;;10.30;99.90;;;;;;5024376;28;20059;-65
2023/10/21 03:20:58;;;;;;;1.65;1.13;;;10.30;99.90;;;;;;5020685;28;20042;-65
2023/10/21 03:23:24;;;;;;;0.95;0.60;;;10.30;99.90;;;;;;5019980;28;20173;-65
2023/10/21 03:26:00;;;;;;;2.97;1.20;;;10.30;99.90;;;;;;5014523;28;20068;-65
2023/10/21 03:28:27;;;;;;;1.42;0.70;;;10.30;99.90;;;;;;5000131;28;20362;-65
2023/10/21 03:31:01;;;;;;;1.25;0.57;;;10.30;99.90;;;;;;5021580;28;20077;-66
2023/10/21 03:33:28;;;;;;;3.13;0.93;;;10.30;99.90;;;;;;5015866;28;20049;-66
2023/10/21 03:35:58;;;;;;;3.70;1.33;;;10.20;99.90;;;;;;5002653;28;20120;-66
2023/10/21 03:38:25;;;;;;;5.45;1.88;;;10.20;99.90;;;;;;5022661;28;20037;-66
2023/10/21 03:41:03;;;;;;;3.92;1.20;;;10.20;99.90;;;;;;5022845;28;20042;-65
2023/10/21 03:43:29;;;;;;;1.90;1.42;;;10.10;99.90;;;;;;5003645;28;20418;-65
2023/10/21 03:45:56;;;;;;;3.38;1.00;;;10.10;99.90;;;;;;5018394;28;20793;-65
2023/10/21 03:48:22;;;;;;;1.63;1.02;;;10.10;99.90;;;;;;5019972;28;20038;-65
2023/10/21 03:50:49;;;;;;;1.83;0.88;;;10.00;99.90;;;;;;5013393;28;20041;-65
2023/10/21 03:53:15;;;;;;;5.97;1.27;;;10.00;99.90;;;;;;5019355;28;20041;-66
2023/10/21 03:55:41;;;;;;;1.77;1.10;;;10.00;99.90;;;;;;5019794;28;20030;-65
2023/10/21 03:58:07;;;;;;;3.45;1.83;;;10.00;99.90;;;;;;5019098;28;20033;-65
2023/10/21 04:00:34;;;;;;;2.78;1.17;;;9.90;99.90;;;;;;4994182;28;20060;-66
2023/10/21 04:03:00;;;;;;;2.47;1.65;;;9.90;99.90;;;;;;5018758;28;20518;-66
2023/10/21 04:05:25;;;;;;;2.35;1.17;;;9.80;99.90;;;;;;5020874;28;20038;-67
2023/10/21 04:07:51;;;;;;;2.45;1.20;;;9.80;99.90;;;;;;5014164;28;20145;-66
2023/10/21 04:10:17;;;;;;;1.73;1.35;;;9.80;99.90;;;;;;4996650;28;20449;-66
2023/10/21 04:12:43;;;;;;;1.60;1.30;;;9.80;99.90;;;;;;5005330;28;20053;-66
2023/10/21 04:15:09;;;;;;;2.35;1.73;;;9.80;99.90;;;;;;4987956;28;20045;-65
2023/10/21 04:17:38;;;;;;;3.08;1.35;;;9.80;99.90;;;;;;4997573;28;20038;-66
2023/10/21 04:20:05;;;;;;;2.63;1.45;;;9.80;99.90;;;;;;4993242;28;20493;-65
2023/10/21 04:22:31;;;;;;;6.13;1.80;;;9.80;99.90;;;;;;5018175;28;20061;-66
2023/10/21 04:24:56;;;;;;;3.22;1.23;;;9.80;99.90;;;;;;4996024;28;20089;-66
2023/10/21 04:27:22;;;;;;;7.60;1.63;;;9.90;99.90;;;;;;5015666;28;20041;-66
2023/10/21 04:29:48;;;;;;;4.90;1.13;;;9.80;99.90;;;;;;5015715;28;20041;-66
2023/10/21 04:32:14;;;;;;;2.05;1.35;;;9.80;99.90;;;;;;4997546;28;20122;-65
2023/10/21 04:34:40;;;;;;;1.35;0.82;;;9.80;99.90;;;;;;5017259;28;20125;-66
2023/10/21 04:37:06;;;;;;;2.35;1.52;;;9.80;99.90;;;;;;4982548;28;20045;-66
2023/10/21 04:39:33;;;;;;;1.90;1.42;;;9.80;99.90;;;;;;5014081;28;20046;-66
2023/10/21 04:41:59;;;;;;;1.48;1.15;;;9.80;99.90;;;;;;5016681;28;20045;-66
2023/10/21 04:44:24;;;;;;;5.45;2.00;;;9.70;99.90;;;;;;5017594;28;20071;-66
2023/10/21 04:46:50;;;;;;;4.60;1.48;;;9.80;99.90;;;;;;5014909;28;20069;-65
2023/10/21 04:49:16;;;;;;;2.03;1.27;;;9.80;99.90;;;;;;5011115;28;20077;-66
2023/10/21 04:51:41;;;;;;;4.18;1.95;;;9.80;99.90;;;;;;5015811;28;20060;-66
2023/10/21 04:54:08;;;;;;;1.25;0.88;;;9.80;99.90;;;;;;5018002;28;20037;-66
2023/10/21 04:56:34;;;;;;;1.88;1.17;;;9.80;99.90;;;;;;5012149;28;20427;-66
2023/10/21 04:58:59;;;;;;;1.48;0.90;;;9.80;99.90;;;;;;5011466;28;20042;-67
2023/10/21 05:01:25;;;;;;;3.33;1.00;;;9.80;99.90;;;;;;5016177;28;20045;-66
2023/10/21 05:03:51;;;;;;;1.77;1.08;;;9.90;99.90;;;;;;4998357;28;20061;-66
2023/10/21 05:06:17;;;;;;;1.08;0.77;;;9.90;99.90;;;;;;5013725;28;20038;-65
2023/10/21 05:08:43;;;;;;;3.03;1.55;;;9.80;99.90;;;;;;4999267;28;20048;-65
2023/10/21 05:11:09;;;;;;;2.47;1.40;;;9.80;99.90;;;;;;5000995;28;20049;-66
2023/10/21 05:13:34;;;;;;;0.80;0.77;;;9.80;99.90;;;;;;5014840;28;20049;-66
2023/10/21 05:16:00;;;;;;;2.58;1.40;;;9.80;99.90;;;;;;5020851;28;20128;-66
2023/10/21 05:18:26;;;;;;;2.53;1.60;;;9.80;99.90;;;;;;4993571;28;20045;-66
2023/10/21 05:20:52;;;;;;;1.52;0.90;;;9.90;99.90;;;;;;5015560;28;20111;-66
2023/10/21 05:23:18;;;;;;;0.65;0.52;;;9.90;99.90;;;;;;5015735;28;20349;-66
2023/10/21 05:25:44;;;;;;;1.30;0.98;;;9.90;99.90;;;;;;5010981;28;20049;-66
2023/10/21 05:28:10;;;;;;;1.77;1.00;;;10.00;99.90;;;;;;5014380;28;20097;-66
2023/10/21 05:30:37;;;;;;;1.70;0.90;;;10.00;99.90;;;;;;5000794;28;20049;-66
2023/10/21 05:33:04;;;;;;;2.55;1.38;;;10.00;99.90;;;;;;5016625;28;20037;-65
2023/10/21 05:35:30;;;;;;;1.02;0.73;;;10.10;99.90;;;;;;4999223;28;20546;-65
2023/10/21 05:37:55;;;;;;;1.38;0.73;;;10.20;99.90;;;;;;5016811;28;20076;-65
2023/10/21 05:40:21;;;;;;;1.70;1.05;;;10.20;99.90;;;;;;5021044;28;20069;-66
2023/10/21 05:42:47;;;;;;;1.48;0.90;;;10.20;99.90;;;;;;5020839;28;20073;-65
2023/10/21 05:45:12;;;;;;;3.10;1.30;;;10.30;99.90;;;;;;5001080;28;20042;-65
2023/10/21 05:47:38;;;;;;;4.10;1.25;;;10.40;99.90;;;;;;5015595;28;20110;-66
2023/10/21 05:50:05;;;;;;;2.25;0.85;;;10.30;99.90;;;;;;5021131;28;20037;-66
2023/10/21 05:52:31;;;;;;;8.73;1.33;;;10.40;99.90;;;;;;5018550;28;20049;-66
2023/10/21 05:54:57;;;;;;;1.95;1.33;;;10.40;99.90;;;;;;4997936;28;20389;-66
2023/10/21 05:57:22;;;;;;;1.67;0.88;;;10.50;99.90;;;;;;5018732;28;20038;-66
2023/10/21 05:59:48;;;;;;;4.35;1.15;;;10.40;99.90;;;;;;5021921;28;20041;-66
2023/10/21 06:02:14;;;;;;;2.20;1.60;;;10.40;99.90;;;;;;5016253;28;20117;-67
2023/10/21 06:04:40;;;;;;;2.25;1.08;;;10.40;99.90;;;;;;5013335;28;20495;-66
2023/10/21 06:07:06;;;;;;;1.30;0.85;;;10.50;99.90;;;;;;5000660;28;20501;-66
2023/10/21 06:09:32;;;;;;;1.65;1.10;;;10.50;99.90;;;;;;5020517;28;20040;-66
2023/10/21 06:11:59;;;;;;;1.40;0.88;;;10.50;99.90;;;;;;5001200;28;20135;-66
2023/10/21 06:14:25;;;;;;;3.55;0.98;;;10.60;99.90;;;;;;5012965;28;20112;-67
2023/10/21 06:16:51;;;;;;;1.45;1.13;;;10.50;99.90;;;;;;5001683;28;20064;-67
2023/10/21 06:19:16;;;;;;;2.33;0.98;;;10.60;99.90;;;;;;5019724;28;20040;-66
2023/10/21 06:21:42;;;;;;;1.02;0.80;;;10.60;99.90;;;;;;5021027;28;20342;-66
2023/10/21 06:24:08;;;;;;;1.08;0.60;;;10.70;99.90;;;;;;5013593;28;20042;-66
2023/10/21 06:26:34;;;;;;;1.15;0.75;;;10.70;99.90;;;;;;5018262;28;20038;-66
2023/10/21 06:29:00;;;;;;;2.15;1.35;;;10.70;99.90;;;;;;4999159;28;20052;-66
2023/10/21 06:31:29;;;;;;;1.15;0.88;;;10.70;99.90;;;;;;5016292;28;20111;-66
2023/10/21 06:33:55;;;;;;;1.33;1.00;;;10.70;99.90;;;;;;5011572;28;20050;-65
2023/10/21 06:36:20;;;;;;;1.48;0.98;;;10.80;99.90;;;;;;5003355;28;20040;-66
2023/10/21 06:38:49;;;;;;;1.90;0.85;;;10.80;99.90;;;;;;5020808;28;20049;-66
2023/10/21 06:41:15;;;;;;;9.80;1.30;;;10.80;99.90;;;;;;5018081;28;20469;-66
2023/10/21 06:43:41;;;;;;;1.48;0.93;;;10.80;99.90;;;;;;4995587;28;20410;-66
2023/10/21 06:46:07;;;;;;;1.38;0.63;;;10.90;99.90;;;;;;5018038;28;20026;-66
2023/10/21 06:48:33;;;;;;;2.90;1.02;;;10.90;99.90;;;;;;5018959;28;20041;-66
2023/10/21 06:50:59;;;;;;;1.27;0.98;;;11.00;99.90;;;;;;4990237;28;20046;-66
2023/10/21 06:53:26;;;;;;;1.25;0.75;;;11.00;99.90;;;;;;5018247;28;20038;-66
2023/10/21 06:55:52;;;;;;;2.22;1.30;;;11.10;99.90;;;;;;4995377;28;20085;-66
2023/10/21 06:58:19;;;;;;;1.95;1.17;;;11.20;99.90;;;;;;5015690;28;20038;-66
2023/10/21 07:00:46;;;;;;;7.35;1.35;;;11.20;99.90;;;;;;5010520;28;20088;-66
2023/10/21 07:03:11;;;;;;;1.60;0.82;;;11.20;99.90;;;;;;5013991;28;20038;-67
2023/10/21 07:05:38;;;;;;;5.38;1.00;;;11.30;99.90;;;;;;5019816;28;20049;-66
2023/10/21 07:08:05;;;;;;;1.67;1.17;;;11.40;99.90;;;;;;5015771;28;20498;-66
2023/10/21 07:10:32;;;;;;;1.58;1.05;;;11.50;99.90;;;;;;5016839;28;20037;-66
2023/10/21 07:12:59;;;;;;;2.38;1.08;;;11.50;99.90;;;;;;4999912;28;20042;-66
2023/10/21 07:15:28;;;;;;;1.75;0.95;;;11.60;99.90;;;;;;5020875;28;20124;-66
2023/10/21 07:17:55;;;;;;;1.45;0.70;;;11.60;99.90;;;;;;5014997;28;20083;-66
2023/10/21 07:20:21;;;;;;;2.22;1.30;;;11.70;99.90;;;;;;5005306;28;20077;-66
2023/10/21 07:22:48;;;;;;;1.55;0.82;;;11.70;99.90;;;;;;5000901;28;20479;-66
2023/10/21 07:25:15;;;;;;;1.33;0.90;;;11.80;99.90;;;;;;5003194;28;20025;-66
2023/10/21 07:27:41;;;;;;;0.95;0.70;;;11.80;99.90;;;;;;5020014;28;20050;-66
2023/10/21 07:30:07;;;;;;;2.55;1.20;;;11.90;99.90;;;;;;5020587;28;20532;-66
2023/10/21 07:32:33;;;;;;;4.13;1.27;;;11.90;99.90;;;;;;5015175;28;20033;-66
2023/10/21 07:34:58;;;;;;;1.08;0.80;;;11.90;99.90;;;;;;5019330;28;20073;-66
2023/10/21 07:37:24;;;;;;;2.67;1.48;;;12.00;99.90;;;;;;5014947;28;20048;-66
2023/10/21 07:39:50;;;;;;;3.53;1.50;;;12.00;99.90;;;;;;5001022;28;20049;-66
2023/10/21 07:42:16;;;;;;;2.67;1.20;;;12.00;99.90;;;;;;5016700;28;20421;-66
2023/10/21 07:44:41;;;;;;;2.47;1.30;;;12.40;99.90;;;;;;5002257;28;20559;-66
2023/10/21 07:47:08;;;;;;;4.63;1.75;;;13.10;99.90;;;;;;5015392;28;20030;-66
2023/10/21 07:49:34;;;;;;;4.13;0.85;;;13.10;99.90;;;;;;5020423;28;20048;-66
2023/10/21 07:52:00;;;;;;;2.38;1.45;;;13.20;99.90;;;;;;5018642;28;20030;-66
2023/10/21 07:54:26;;;;;;;1.63;1.10;;;13.30;99.90;;;;;;5019069;28;20041;-66
2023/10/21 07:56:53;;;;;;;3.70;1.45;;;13.50;99.90;;;;;;4993666;28;20246;-66
2023/10/21 07:59:22;;;;;;;1.90;1.02;;;13.50;99.90;;;;;;5011798;28;20081;-66
2023/10/21 08:01:49;;;;;;;1.17;1.08;;;13.50;99.90;;;;;;5014655;28;20575;-66
2023/10/21 08:04:14;;;;;;;1.25;0.88;;;13.50;99.90;;;;;;5020521;28;20409;-66
2023/10/21 08:06:43;;;;;;;1.73;1.02;;;13.50;99.90;;;;;;5018925;28;20042;-67
2023/10/21 08:09:09;;;;;;;2.38;0.98;;;13.50;99.90;;;;;;4975900;28;20265;-66
2023/10/21 08:11:35;;;;;;;3.80;1.23;;;13.60;99.90;;;;;;5018985;28;20410;-66
2023/10/21 08:14:00;;;;;;;2.30;1.20;;;13.70;99.90;;;;;;5017684;28;20073;-66
2023/10/21 08:16:26;;;;;;;2.05;1.17;;;14.10;99.90;;;;;;5021536;28;20409;-66
2023/10/21 08:18:52;;;;;;;3.80;1.02;;;14.50;99.90;;;;;;5011532;28;20033;-66
2023/10/21 08:21:18;;;;;;;2.17;1.02;;;15.00;99.90;;;;;;5018599;28;20038;-66
2023/10/21 08:23:44;;;;;;;3.13;1.42;;;15.80;99.90;;;;;;5019447;28;20045;-67
2023/10/21 08:26:09;;;;;;;3.95;1.48;;;16.50;99.90;;;;;;5017120;28;20084;-66
2023/10/21 08:28:35;;;;;;;14.57;2.00;;;17.00;99.90;;;;;;5002286;28;20037;-66
2023/10/21 08:31:01;;;;;;;2.58;1.30;;;17.50;99.90;;;;;;5016338;28;20037;-66
2023/10/21 08:33:27;;;;;;;1.42;0.98;;;18.00;99.90;;;;;;5007482;28;20739;-66
2023/10/21 08:35:52;;;;;;;10.68;1.10;;;18.10;99.90;;;;;;5004004;28;20042;-66
2023/10/21 08:38:18;;;;;;;2.05;0.73;;;18.50;99.90;;;;;;5015839;28;20041;-66
2023/10/21 08:40:47;;;;;;;2.92;1.00;;;18.90;99.90;;;;;;5017735;28;20492;-66
2023/10/21 08:43:21;;;;;;;0.98;0.40;;;19.30;99.90;;;;;;5020921;28;20033;-66
2023/10/21 08:45:48;;;;;;;1.02;0.63;;;19.60;99.90;;;;;;5011953;28;20172;-66
2023/10/21 08:48:15;;;;;;;1.25;0.43;;;19.90;99.90;;;;;;5013424;28;20511;-66
2023/10/21 08:50:43;;;;;;;2.10;0.40;;;20.30;99.90;;;;;;5017934;28;20052;-66
2023/10/21 08:53:11;;;;;;;2.63;0.65;;;20.60;99.90;;;;;;5002261;28;20482;-66
2023/10/21 08:55:41;;;;;;;0.80;0.40;;;20.90;99.90;;;;;;5016805;28;20045;-66
2023/10/21 08:58:07;;;;;;;0.65;0.40;;;21.20;99.90;;;;;;5018152;28;20103;-67
2023/10/21 09:00:34;;;;;;;2.85;0.30;;;21.20;99.90;;;;;;5018176;28;20029;-65
2023/10/21 09:03:01;;;;;;;0.82;0.43;;;20.60;99.90;;;;;;5022894;28;20049;-66
2023/10/21 09:05:27;;;;;;;0.40;0.30;;;19.90;99.90;;;;;;5009763;28;20065;-66
2023/10/21 09:07:53;;;;;;;0.88;0.38;;;19.10;99.90;;;;;;5018088;28;20422;-66
2023/10/21 09:10:20;;;;;;;1.27;0.40;;;18.40;99.90;;;;;;5015722;28;20042;-66
2023/10/21 09:12:46;;;;;;;1.40;0.40;;;17.70;99.90;;;;;;5010621;28;20045;-66
2023/10/21 09:15:12;;;;;;;0.38;0.30;;;17.10;99.90;;;;;;5010540;28;20401;-66
2023/10/21 09:17:52;;;;;;;0.90;0.40;;;16.60;99.90;;;;;;5013166;28;20037;-65
2023/10/21 09:20:18;;;;;;;0.63;0.50;;;16.20;99.90;;;;;;5001496;28;20056;-65
2023/10/21 09:22:49;;;;;;;2.25;0.45;;;15.80;99.90;;;;;;5013564;28;20513;-66
2023/10/21 09:25:22;;;;;;;3.05;0.55;;;15.50;99.90;;;;;;4996251;28;20053;-66
2023/10/21 09:27:55;;;;;;;0.60;0.20;;;15.30;99.90;;;;;;5015362;28;20041;-65
2023/10/21 09:30:23;;;;;;;1.30;0.75;;;15.20;99.90;;;;;;5016340;28;20390;-65
2023/10/21 09:32:49;;;;;;;2.92;0.55;;;15.00;99.90;;;;;;5012951;28;20053;-65
2023/10/21 09:35:38;;;;;;;0.40;0.30;;;14.90;99.90;;;;;;5011872;28;20097;-65
2023/10/21 09:38:18;;;;;;;0.35;0.25;;;14.70;99.90;;;;;;5016648;28;20030;-64
2023/10/21 09:40:44;;;;;;;1.60;0.52;;;14.50;99.90;;;;;;5013761;28;20103;-65
2023/10/21 09:43:13;;;;;;;4.55;0.88;;;14.50;99.90;;;;;;5010559;28;20065;-65
2023/10/21 09:45:43;;;;;;;0.60;0.38;;;14.40;99.90;;;;;;5017351;28;20038;-65
2023/10/21 09:48:11;;;;;;;3.13;0.30;;;14.40;99.90;;;;;;5019014;28;20537;-65
2023/10/21 09:50:42;;;;;;;1.05;0.43;;;14.30;99.90;;;;;;5012574;28;20393;-65
2023/10/21 09:53:12;;;;;;;0.98;0.35;;;14.20;99.90;;;;;;5010827;28;20045;-65
2023/10/21 09:55:42;;;;;;;2.28;0.40;;;14.20;99.90;;;;;;5015253;28;20522;-65
2023/10/21 09:58:08;;;;;;;0.75;0.28;;;14.10;99.90;;;;;;5016585;28;20115;-64
2023/10/21 10:00:35;;;;;;;0.10;0.10;;;14.10;99.90;;;;;;5012908;28;20052;-65
2023/10/21 10:03:01;;;;;;;0.65;0.20;;;14.10;99.90;;;;;;5010431;28;20057;-64
2023/10/21 10:05:27;;;;;;;0.43;0.13;;;14.10;99.90;;;;;;5015564;28;20054;-64
2023/10/21 10:07:53;;;;;;;1.15;0.20;;;14.10;99.90;;;;;;4999268;28;20052;-64
2023/10/21 10:10:24;;;;;;;0.25;0.10;;;14.10;99.90;;;;;;5018038;28;20037;-65
2023/10/21 10:13:11;;;;;;;0.30;0.10;;;14.20;99.90;;;;;;5011728;28;20406;-64
2023/10/21 10:15:39;;;;;;;0.00;0.00;;;14.20;99.90;;;;;;5015359;28;20293;-65
2023/10/21 10:18:08;;;;;;;0.43;0.10;;;14.10;99.90;;;;;;5017275;28;20034;-64
2023/10/21 10:20:34;;;;;;;0.45;0.20;;;14.10;99.90;;;;;;5020541;28;20128;-65
2023/10/21 10:23:01;;;;;;;0.10;0.08;;;14.00;99.90;;;;;;5017130;28;20415;-64
2023/10/21 10:25:33;;;;;;;0.10;0.10;;;14.10;99.90;;;;;;5022032;28;20489;-65
2023/10/21 10:28:07;;;;;;;0.30;0.20;;;14.00;99.90;;;;;;5021141;28;20427;-65
2023/10/21 10:30:34;;;;;;;0.10;0.03;;;14.00;99.90;;;;;;5024011;28;20042;-65
2023/10/21 10:33:12;;;;;;;0.08;0.05;;;14.10;99.90;;;;;;5022187;28;20044;-65
2023/10/21 10:35:42;;;;;;;2.00;0.00;;;14.20;99.90;;;;;;5017892;28;20033;-65
2023/10/21 10:38:36;;;;;;;0.22;0.00;;;14.30;99.90;;;;;;5020637;28;20076;-65
2023/10/21 10:41:06;;;;;;;0.30;0.10;;;14.40;99.90;;;;;;5023520;28;20041;-65
2023/10/21 10:43:32;;;;;;;0.00;0.00;;;14.40;99.90;;;;;;4994612;28;20121;-65
2023/10/21 10:46:00;;;;;;;0.00;0.00;;;14.60;99.90;;;;;;5019668;28;20038;-65
2023/10/21 10:48:26;;;;;;;0.47;0.20;;;15.00;99.90;;;;;;5017123;28;20052;-65
2023/10/21 10:51:00;;;;;;;0.17;0.10;;;15.20;99.90;;;;;;5015121;28;20037;-65
2023/10/21 10:53:27;;;;;;;1.50;0.25;;;15.10;99.90;;;;;;5017156;28;20311;-65
2023/10/21 10:55:56;;;;;;;0.08;0.03;;;15.00;99.90;;;;;;5022394;28;20045;-65
2023/10/21 10:58:26;;;;;;;0.00;0.00;;;15.10;99.90;;;;;;5018244;28;20076;-65
2023/10/21 11:00:52;;;;;;;0.00;0.00;;;15.60;99.90;;;;;;5014322;28;20046;-66
2023/10/21 11:03:29;;;;;;;0.00;0.00;;;15.40;99.90;;;;;;5016704;28;20053;-65
2023/10/21 11:05:56;;;;;;;0.10;0.00;;;15.10;99.90;;;;;;5020534;28;20344;-65
2023/10/21 11:08:23;;;;;;;0.05;0.00;;;14.90;99.90;;;;;;5020215;28;20128;-66
2023/10/21 11:10:49;;;;;;;0.10;0.00;;;14.70;99.90;;;;;;5021390;28;20386;-65
2023/10/21 11:13:18;;;;;;;3.50;0.17;;;14.50;99.90;;;;;;5022022;28;20103;-65
2023/10/21 11:15:47;;;;;;;0.00;0.00;;;14.40;99.90;;;;;;5024976;28;20045;-65
2023/10/21 11:18:15;;;;;;;0.08;0.00;;;14.40;99.90;;;;;;5013095;28;20037;-65
2023/10/21 11:20:48;;;;;;;0.00;0.00;;;14.40;99.90;;;;;;5016410;28;20049;-66
2023/10/21 11:23:18;;;;;;;0.00;0.00;;;14.30;99.90;;;;;;5021194;28;20068;-65
2023/10/21 11:25:50;;;;;;;0.10;0.00;;;14.30;99.90;;;;;;5019772;28;20499;-65
2023/10/21 11:28:16;;;;;;;0.00;0.00;;;14.30;99.90;;;;;;5014700;28;20045;-64
2023/10/21 11:30:44;;;;;;;0.00;0.00;;;14.20;99.90;;;;;;5019154;28;20459;-65
2023/10/21 11:33:10;;;;;;;0.17;0.00;;;14.10;99.90;;;;;;5020971;28;20042;-65
2023/10/21 11:35:41;;;;;;;0.00;0.00;;;14.10;99.90;;;;;;5023472;28;20073;-65
2023/10/21 11:38:07;;;;;;;0.00;0.00;;;14.00;99.90;;;;;;5012554;28;20057;-65
2023/10/21 11:40:36;;;;;;;0.00;0.00;;;14.00;99.90;;;;;;5014633;28;20038;-65
2023/10/21 11:43:05;;;;;;;0.10;0.00;;;13.90;99.90;;;;;;5020781;28;20044;-65
2023/10/21 11:45:31;;;;;;;3.20;0.10;;;13.80;99.90;;;;;;5017842;28;20481;-65
2023/10/21 11:48:00;;;;;;;0.10;0.10;;;13.80;99.90;;;;;;5015085;28;20132;-65
2023/10/21 11:50:34;;;;;;;0.75;0.10;;;13.80;99.90;;;;;;5022599;28;20126;-65
2023/10/21 11:53:03;;;;;;;0.20;0.00;;;13.80;99.90;;;;;;5018998;28;20274;-65
2023/10/21 12:01:50;;;;;;;0.10;0.10;;;13.80;99.90;;;;;;5019439;28;20128;-65
2023/10/21 12:13:08;;;;;;;0.00;0.00;;;13.90;99.90;;;;;;5018229;28;20041;-65
2023/10/21 12:26:19;;;;;;;0.10;0.10;;;14.60;99.90;;;;;;4992947;28;20081;-65
2023/10/21 12:31:40;;;;;;;0.98;0.30;;;14.70;99.90;;;;;;5015002;28;20054;-66
2023/10/21 12:39:46;;;;;;;0.45;0.10;;;14.50;99.90;;;;;;5000737;28;20130;-65
2023/10/21 12:42:25;;;;;;;0.17;0.00;;;14.50;99.90;;;;;;5011669;28;20173;-66
2023/10/21 12:44:52;;;;;;;0.30;0.20;;;14.40;99.90;;;;;;5010119;28;20079;-65
2023/10/21 12:47:18;;;;;;;0.13;0.10;;;14.40;99.90;;;;;;5016507;28;20036;-65
2023/10/21 12:49:45;;;;;;;0.15;0.00;;;14.50;99.90;;;;;;5016430;28;20117;-65
2023/10/21 12:52:11;;;;;;;0.00;0.00;;;14.50;99.90;;;;;;5002727;28;20077;-66
2023/10/21 12:54:37;;;;;;;1.20;0.20;;;14.40;99.90;;;;;;4995468;28;20034;-65
2023/10/21 12:57:03;;;;;;;0.57;0.00;;;14.40;99.90;;;;;;5016239;28;20516;-65
2023/10/21 12:59:29;;;;;;;0.10;0.00;;;14.40;99.90;;;;;;5018555;28;20046;-66
2023/10/21 13:01:55;;;;;;;0.00;0.00;;;14.40;99.90;;;;;;5012479;28;20064;-65
2023/10/21 13:04:21;;;;;;;1.25;0.00;;;14.40;99.90;;;;;;5011064;28;20046;-65
2023/10/21 13:06:47;;;;;;;0.00;0.00;;;14.40;99.90;;;;;;5019434;28;20049;-65
2023/10/21 13:09:28;;;;;;;0.50;0.10;;;14.50;99.90;;;;;;5017105;28;20533;-65
2023/10/21 13:11:54;;;;;;;0.75;0.25;;;14.50;99.90;;;;;;4998533;28;20382;-66
2023/10/21 13:14:29;;;;;;;0.05;0.00;;;14.50;99.90;;;;;;5018922;28;20328;-66
2023/10/21 13:16:55;;;;;;;0.65;0.10;;;14.60;99.90;;;;;;5017021;28;20084;-65
2023/10/21 13:19:24;;;;;;;0.10;0.08;;;14.60;99.90;;;;;;5015975;28;20073;-65
2023/10/21 13:21:53;;;;;;;0.10;0.00;;;14.60;99.90;;;;;;5024290;28;20048;-66